Time;durP1;ratioP1;P1;durP2;ratioP2;P2;SDS_P1;SDS_P2;PMS_P1;PMS_P2;Temp;Humidity;BMP_temperature;BMP_pressure;BME280_temperature;BME280_humidity;BME280_pressure;Samples;Min_cycle;Max_cycle;Signal;HPM_P1;HPM_P2
2021/08/22 00:02:00;;;;;;;3.97;3.50;;;;;;;21.31;37.00;94145.41;4975416;28;20518;-76
2021/08/22 00:04:28;;;;;;;5.90;3.72;;;;;;;21.51;37.48;94159.50;4978262;28;20419;-76
2021/08/22 00:06:53;;;;;;;3.58;3.28;;;;;;;21.41;37.76;94161.72;4972578;28;20338;-75
2021/08/22 00:09:18;;;;;;;3.75;3.40;;;;;;;21.41;37.15;94150.91;4973311;28;20042;-75
2021/08/22 00:11:44;;;;;;;5.80;3.63;;;;;;;21.42;37.03;94147.06;4973886;28;20165;-75
2021/08/22 00:14:09;;;;;;;3.90;3.47;;;;;;;21.38;36.96;94146.25;4973454;28;20030;-76
2021/08/22 00:16:34;;;;;;;4.75;3.20;;;;;;;21.10;36.86;94105.41;4979057;28;20444;-75
2021/08/22 00:19:00;;;;;;;4.78;3.33;;;;;;;21.37;37.00;94160.91;4974672;28;20039;-75
2021/08/22 00:21:25;;;;;;;5.80;3.42;;;;;;;21.35;36.87;94147.00;4975355;28;20058;-76
2021/08/22 00:23:51;;;;;;;5.30;3.40;;;;;;;21.37;36.71;94163.63;4974310;28;20041;-75
2021/08/22 00:26:16;;;;;;;6.32;3.28;;;;;;;21.35;37.58;94157.81;4977538;28;20068;-75
2021/08/22 00:28:41;;;;;;;4.80;3.88;;;;;;;21.36;37.23;94180.25;4969355;28;20092;-75
2021/08/22 00:31:07;;;;;;;7.90;3.05;;;;;;;20.97;37.62;94182.56;4971682;28;20050;-76
2021/08/22 00:33:32;;;;;;;7.15;3.30;;;;;;;21.06;36.90;94176.84;4975106;28;20644;-76
2021/08/22 00:35:58;;;;;;;4.80;3.60;;;;;;;21.16;38.45;94178.88;4973136;28;20041;-75
2021/08/22 00:38:23;;;;;;;5.47;3.40;;;;;;;21.29;37.56;94186.38;4973830;28;20587;-75
2021/08/22 00:40:49;;;;;;;5.85;3.65;;;;;;;21.18;37.84;94188.16;4973918;28;20056;-75
2021/08/22 00:43:15;;;;;;;5.60;3.88;;;;;;;21.18;38.70;94185.47;4977133;28;20039;-76
2021/08/22 00:45:44;;;;;;;5.30;3.55;;;;;;;21.15;38.39;94191.63;4972474;28;20345;-75
2021/08/22 00:48:10;;;;;;;5.05;3.47;;;;;;;21.03;37.65;94162.91;4977637;28;20453;-76
2021/08/22 00:50:36;;;;;;;6.13;3.67;;;;;;;21.07;37.59;94170.31;4971815;28;20038;-75
2021/08/22 00:53:05;;;;;;;4.82;3.53;;;;;;;21.12;37.41;94176.13;4974924;28;20037;-75
2021/08/22 00:55:30;;;;;;;6.90;4.28;;;;;;;21.26;37.40;94184.41;4973652;28;20030;-75
2021/08/22 00:57:56;;;;;;;4.78;3.25;;;;;;;21.13;37.58;94161.47;4972153;28;20023;-75
2021/08/22 01:00:22;;;;;;;5.88;3.58;;;;;;;21.29;36.82;94169.34;4972160;28;20038;-77
2021/08/22 01:02:53;;;;;;;6.47;3.85;;;;;;;21.31;37.27;94175.97;4975342;28;20042;-76
2021/08/22 01:05:45;;;;;;;4.57;3.75;;;;;;;21.20;37.63;94171.59;4971782;28;20096;-76
2021/08/22 01:08:31;;;;;;;5.55;3.70;;;;;;;21.18;37.09;94168.47;4971949;28;20042;-75
2021/08/22 01:11:06;;;;;;;5.78;3.63;;;;;;;21.02;37.58;94166.00;4974500;28;20066;-75
2021/08/22 01:13:39;;;;;;;4.85;3.47;;;;;;;20.86;37.71;94162.69;4976216;28;20480;-75
2021/08/22 01:16:07;;;;;;;3.58;3.28;;;;;;;20.54;38.03;94149.59;4973303;28;20382;-75
2021/08/22 01:18:35;;;;;;;5.25;3.42;;;;;;;20.58;38.47;94172.00;4969214;28;20034;-75
2021/08/22 01:21:11;;;;;;;4.93;4.05;;;;;;;20.54;38.29;94149.59;4969317;28;20108;-75
2021/08/22 01:23:43;;;;;;;5.85;3.58;;;;;;;20.66;38.31;94164.78;4973627;28;20567;-75
2021/08/22 01:26:09;;;;;;;7.82;3.63;;;;;;;20.48;38.23;94136.78;4971715;28;20394;-76
2021/08/22 01:28:36;;;;;;;6.30;3.50;;;;;;;20.38;38.55;94162.53;4976117;28;20457;-74
2021/08/22 01:31:06;;;;;;;3.78;3.42;;;;;;;20.45;38.50;94170.69;4972975;28;20038;-74
2021/08/22 01:33:32;;;;;;;5.55;3.70;;;;;;;20.39;38.89;94172.16;4974633;28;20102;-74
2021/08/22 01:35:59;;;;;;;6.30;3.65;;;;;;;20.35;38.67;94171.34;4972815;28;20042;-74
2021/08/22 01:38:25;;;;;;;5.90;3.55;;;;;;;20.26;39.05;94178.94;4975256;28;20080;-74
2021/08/22 01:40:51;;;;;;;5.88;3.75;;;;;;;20.28;38.65;94176.66;4975723;28;20026;-75
2021/08/22 01:43:17;;;;;;;4.55;3.33;;;;;;;20.10;39.27;94170.19;4975439;28;20370;-74
2021/08/22 01:45:43;;;;;;;4.68;4.18;;;;;;;19.95;39.13;94144.91;4969800;28;20038;-74
2021/08/22 01:48:12;;;;;;;6.80;3.85;;;;;;;20.14;38.88;94165.63;4974307;28;20505;-74
2021/08/22 01:50:39;;;;;;;4.22;3.28;;;;;;;20.04;39.18;94160.88;4974777;28;20039;-74
2021/08/22 01:53:05;;;;;;;9.35;4.00;;;;;;;19.81;39.81;94171.69;4971935;28;20030;-75
2021/08/22 01:55:32;;;;;;;5.88;3.92;;;;;;;19.90;40.31;94172.22;4977919;28;20042;-74
2021/08/22 01:57:57;;;;;;;5.80;3.72;;;;;;;20.07;39.64;94165.53;4977215;28;20072;-75
2021/08/22 02:00:23;;;;;;;4.68;3.63;;;;;;;19.93;39.67;94151.81;4980031;28;20560;-74
2021/08/22 02:03:10;;;;;;;4.18;3.70;;;;;;;19.97;40.30;94160.75;4977278;28;20772;-75
2021/08/22 02:05:37;;;;;;;7.13;3.40;;;;;;;20.17;39.54;94175.72;4978696;28;20549;-74
2021/08/22 02:08:12;;;;;;;5.55;3.88;;;;;;;;;;4976214;28;20030;-74
2021/08/22 02:10:42;;;;;;;7.45;3.53;;;;;;;20.00;40.61;94178.91;4978373;28;20061;-74
2021/08/22 02:13:10;;;;;;;5.75;3.85;;;;;;;19.86;40.55;94149.00;4993072;28;20627;-75
2021/08/22 02:15:41;;;;;;;6.13;3.58;;;;;;;19.88;40.10;94173.72;4978609;28;20117;-74
2021/08/22 02:18:15;;;;;;;8.82;3.88;;;;;;;19.79;40.19;94165.13;4977936;28;20579;-74
2021/08/22 02:20:41;;;;;;;4.53;4.13;;;;;;;19.79;40.67;94171.28;4976680;28;20469;-74
2021/08/22 02:23:08;;;;;;;5.40;3.85;;;;;;;19.61;41.17;94157.50;4977014;28;20141;-75
2021/08/22 02:25:35;;;;;;;5.63;4.25;;;;;;;19.66;40.94;94173.38;4973597;28;20149;-75
2021/08/22 02:28:00;;;;;;;4.97;4.43;;;;;;;19.65;41.02;94177.22;4977409;28;20042;-74
2021/08/22 02:30:31;;;;;;;6.63;4.20;;;;;;;19.61;41.22;94176.38;4980060;28;20558;-74
2021/08/22 02:32:57;;;;;;;5.50;4.72;;;;;;;19.46;42.02;94177.28;4975777;28;20061;-75
2021/08/22 02:35:22;;;;;;;6.80;5.05;;;;;;;19.51;41.82;94174.28;4975298;28;20046;-74
2021/08/22 02:37:47;;;;;;;5.03;4.53;;;;;;;19.39;42.53;94179.06;4978173;28;20464;-74
2021/08/22 02:40:13;;;;;;;7.18;4.82;;;;;;;19.38;42.60;94172.91;4976693;28;20033;-75
2021/08/22 02:42:38;;;;;;;6.30;5.00;;;;;;;19.53;42.11;94182.81;4978034;28;20202;-75
2021/08/22 02:45:05;;;;;;;5.22;4.72;;;;;;;19.36;42.60;94185.19;4976988;28;20117;-75
2021/08/22 02:47:30;;;;;;;5.22;4.63;;;;;;;19.34;42.26;94177.47;4977867;28;20405;-75
2021/08/22 02:49:56;;;;;;;8.88;5.45;;;;;;;19.46;41.95;94174.59;4976512;28;20065;-75
2021/08/22 02:52:21;;;;;;;6.22;4.57;;;;;;;19.42;42.42;94181.81;4977949;28;20701;-75
2021/08/22 02:54:46;;;;;;;6.40;5.15;;;;;;;19.35;42.60;94181.72;4975941;28;20030;-76
2021/08/22 02:57:12;;;;;;;5.35;4.85;;;;;;;19.28;43.24;94173.50;4978138;28;20156;-74
2021/08/22 02:59:37;;;;;;;5.70;5.00;;;;;;;19.12;43.39;94160.13;4977570;28;20519;-75
2021/08/22 03:02:03;;;;;;;8.57;4.63;;;;;;;19.12;43.37;94176.28;4974641;28;20173;-75
2021/08/22 03:04:28;;;;;;;5.60;4.30;;;;;;;19.13;42.84;94171.69;4975761;28;20073;-77
2021/08/22 03:06:53;;;;;;;5.53;4.25;;;;;;;19.30;42.44;94176.63;4972269;28;20405;-74
2021/08/22 03:09:19;;;;;;;7.10;4.32;;;;;;;19.37;42.29;94175.94;4975721;28;20061;-75
2021/08/22 03:11:44;;;;;;;7.57;4.80;;;;;;;19.26;42.25;94170.41;4974506;28;20054;-74
2021/08/22 03:14:11;;;;;;;7.07;4.30;;;;;;;19.24;42.21;94167.25;4976646;28;20429;-74
2021/08/22 03:16:36;;;;;;;10.63;4.75;;;;;;;19.26;42.28;94165.00;4975881;28;20647;-74
2021/08/22 03:19:02;;;;;;;6.78;4.07;;;;;;;19.25;41.71;94163.44;4977521;28;20068;-74
2021/08/22 03:21:27;;;;;;;4.65;3.42;;;;;;;19.38;41.35;94181.00;4973610;28;20042;-75
2021/08/22 03:23:52;;;;;;;5.70;4.18;;;;;;;19.32;41.85;94185.91;4977826;28;20050;-75
2021/08/22 03:26:18;;;;;;;6.78;3.75;;;;;;;19.40;41.31;94181.41;4974241;28;20450;-74
2021/08/22 03:28:43;;;;;;;5.57;3.20;;;;;;;19.31;41.10;94172.78;4976546;28;20529;-75
2021/08/22 03:31:09;;;;;;;3.97;3.08;;;;;;;19.36;40.97;94169.78;4975851;28;20041;-75
2021/08/22 03:33:34;;;;;;;6.00;3.17;;;;;;;19.29;41.16;94175.84;4977726;28;20030;-74
2021/08/22 03:36:00;;;;;;;6.50;3.78;;;;;;;19.19;41.55;94173.72;4975374;28;20038;-75
2021/08/22 03:38:26;;;;;;;4.90;3.83;;;;;;;19.33;41.42;94181.28;4978354;28;20150;-75
2021/08/22 03:40:51;;;;;;;3.83;3.35;;;;;;;19.26;41.10;94162.31;4974609;28;20109;-75
2021/08/22 03:43:17;;;;;;;7.18;3.75;;;;;;;19.33;41.10;94181.28;4977146;28;20184;-75
2021/08/22 03:45:43;;;;;;;6.50;3.17;;;;;;;19.40;41.53;94181.41;4974423;28;20501;-74
2021/08/22 03:48:09;;;;;;;5.32;3.70;;;;;;;19.25;42.53;94163.44;4975605;28;20048;-74
2021/08/22 03:50:34;;;;;;;5.50;3.85;;;;;;;19.29;42.38;94181.22;4977728;28;20355;-74
2021/08/22 03:52:59;;;;;;;11.65;4.15;;;;;;;19.49;41.53;94184.69;4974262;28;20034;-74
2021/08/22 03:55:25;;;;;;;5.15;3.45;;;;;;;19.50;42.05;94190.88;4977051;28;20030;-75
2021/08/22 03:57:50;;;;;;;3.80;3.40;;;;;;;19.52;42.54;94178.56;4974025;28;20347;-74
2021/08/22 04:00:16;;;;;;;7.80;4.50;;;;;;;19.27;43.08;94183.50;4975484;28;20085;-74
2021/08/22 04:02:42;;;;;;;5.75;3.70;;;;;;;19.15;42.66;94175.59;4974419;28;20060;-75
2021/08/22 04:05:10;;;;;;;7.18;3.88;;;;;;;19.22;42.71;94199.19;4977063;28;20499;-74
2021/08/22 04:07:36;;;;;;;3.97;3.42;;;;;;;19.18;43.26;94201.03;4972787;28;20058;-74
2021/08/22 04:10:04;;;;;;;5.38;3.28;;;;;;;19.13;42.91;94183.25;4975014;28;20050;-74
2021/08/22 04:12:30;;;;;;;5.40;3.85;;;;;;;19.20;43.42;94191.47;4974598;28;20598;-75
2021/08/22 04:14:55;;;;;;;7.70;4.10;;;;;;;19.26;43.31;94202.75;4976307;28;20035;-75
2021/08/22 04:17:21;;;;;;;15.15;4.30;;;;;;;19.20;43.57;94193.38;4975386;28;20613;-74
2021/08/22 04:19:46;;;;;;;5.35;3.90;;;;;;;19.39;43.21;94195.25;4977362;28;20054;-76
2021/08/22 04:22:12;;;;;;;8.38;3.50;;;;;;;19.33;42.94;94202.84;4975497;28;20074;-75
2021/08/22 04:24:38;;;;;;;7.22;4.10;;;;;;;19.28;43.11;94211.25;4975683;28;20026;-75
2021/08/22 04:27:05;;;;;;;5.10;3.67;;;;;;;19.25;44.15;94210.06;4977147;28;20120;-75
2021/08/22 04:29:34;;;;;;;6.97;3.90;;;;;;;19.36;43.76;94221.00;4975094;28;20046;-74
2021/08/22 04:31:59;;;;;;;7.45;3.88;;;;;;;19.32;44.24;94215.56;4976041;28;20030;-75
2021/08/22 04:34:24;;;;;;;6.18;4.30;;;;;;;19.43;43.92;94218.44;4975543;28;20022;-75
2021/08/22 04:36:50;;;;;;;7.88;4.35;;;;;;;19.37;45.00;94216.41;4973451;28;20041;-75
2021/08/22 04:39:18;;;;;;;6.45;4.05;;;;;;;19.37;44.69;94200.22;4975252;28;20049;-75
2021/08/22 04:41:44;;;;;;;7.55;4.00;;;;;;;19.48;44.71;94212.00;4975205;28;20073;-74
2021/08/22 04:44:10;;;;;;;7.07;4.20;;;;;;;19.63;44.26;94221.91;4978504;28;20065;-75
2021/08/22 04:46:35;;;;;;;5.40;4.53;;;;;;;19.63;44.49;94217.28;4975359;28;20121;-74
2021/08/22 04:49:01;;;;;;;5.57;3.90;;;;;;;19.56;44.25;94222.56;4975300;28;20038;-74
2021/08/22 04:51:26;;;;;;;8.57;4.35;;;;;;;19.80;43.20;94226.03;4977167;28;20517;-76
2021/08/22 04:53:51;;;;;;;5.55;4.68;;;;;;;19.79;44.03;94229.88;4972885;28;20038;-74
2021/08/22 04:56:17;;;;;;;8.35;4.38;;;;;;;19.67;43.16;94210.03;4973408;28;20511;-74
2021/08/22 04:58:42;;;;;;;6.07;4.75;;;;;;;19.96;43.25;94224.75;4975764;28;20041;-74
2021/08/22 05:01:08;;;;;;;6.63;4.32;;;;;;;20.02;43.39;94238.72;4973178;28;20038;-75
2021/08/22 05:03:33;;;;;;;6.30;4.72;;;;;;;20.07;42.75;94233.03;4971751;28;20425;-74
2021/08/22 05:05:58;;;;;;;4.78;4.30;;;;;;;20.13;42.02;94231.56;4973713;28;20156;-75
2021/08/22 05:08:24;;;;;;;6.63;4.60;;;;;;;20.22;40.92;94236.75;4974959;28;20073;-74
2021/08/22 05:10:49;;;;;;;10.23;5.00;;;;;;;20.24;41.03;94213.63;4972492;28;20123;-75
2021/08/22 05:13:16;;;;;;;10.13;4.70;;;;;;;20.43;40.57;94229.72;4976213;28;20042;-74
2021/08/22 05:15:41;;;;;;;10.77;5.55;;;;;;;20.46;40.68;94225.50;4973690;28;20047;-74
2021/08/22 05:18:07;;;;;;;7.07;4.50;;;;;;;20.59;39.89;94230.31;4971214;28;20034;-74
2021/08/22 05:20:33;;;;;;;5.85;5.03;;;;;;;20.51;40.25;94238.72;4974879;28;20056;-74
2021/08/22 05:22:58;;;;;;;9.55;5.07;;;;;;;20.39;40.77;94220.78;4976342;28;20026;-75
2021/08/22 05:25:24;;;;;;;8.73;4.93;;;;;;;20.64;40.19;94231.13;4971627;28;20026;-75
2021/08/22 05:27:49;;;;;;;8.30;5.05;;;;;;;20.79;40.05;94230.19;4976059;28;20404;-74
2021/08/22 05:30:14;;;;;;;5.72;4.55;;;;;;;20.93;39.76;94235.78;4973841;28;20170;-75
2021/08/22 05:32:40;;;;;;;5.50;4.30;;;;;;;20.96;39.35;94235.06;4976402;28;20030;-74
2021/08/22 05:35:05;;;;;;;6.63;4.82;;;;;;;21.00;39.26;94227.78;4970669;28;20326;-75
2021/08/22 05:37:31;;;;;;;6.18;5.30;;;;;;;20.79;39.36;94216.66;4976412;28;20089;-74
2021/08/22 05:39:57;;;;;;;11.02;4.63;;;;;;;20.86;39.20;94233.75;4973464;28;20046;-74
2021/08/22 05:42:22;;;;;;;6.70;4.88;;;;;;;20.64;40.05;94187.91;4970899;28;20469;-75
2021/08/22 05:44:47;;;;;;;8.95;5.68;;;;;;;21.03;39.29;94233.22;4976076;28;20545;-74
2021/08/22 05:47:20;;;;;;;8.77;5.60;;;;;;;21.19;39.26;94241.13;4972403;28;20034;-74
2021/08/22 05:49:47;;;;;;;8.13;5.15;;;;;;;21.29;39.13;94235.06;4976343;28;20429;-75
2021/08/22 05:52:12;;;;;;;7.38;4.75;;;;;;;21.17;38.26;94223.72;4974841;28;20318;-74
2021/08/22 05:54:38;;;;;;;6.20;4.72;;;;;;;21.10;38.90;94232.53;4974976;28;20057;-74
2021/08/22 05:57:03;;;;;;;5.47;4.20;;;;;;;21.21;38.78;94238.06;4973441;28;20551;-74
2021/08/22 05:59:29;;;;;;;6.28;4.43;;;;;;;21.26;38.16;94224.97;4974906;28;20039;-74
2021/08/22 06:01:54;;;;;;;4.30;3.85;;;;;;;21.23;38.08;94231.13;4972762;28;20057;-74
2021/08/22 06:04:20;;;;;;;4.82;3.90;;;;;;;21.39;37.92;94239.78;4975481;28;20032;-75
2021/08/22 06:06:46;;;;;;;8.05;3.95;;;;;;;21.42;37.83;94240.97;4975293;28;20046;-74
2021/08/22 06:09:11;;;;;;;5.97;4.63;;;;;;;21.48;37.85;94241.41;4971703;28;20058;-74
2021/08/22 06:11:37;;;;;;;11.70;5.13;;;;;;;21.25;37.48;94233.47;4973817;28;20058;-74
2021/08/22 06:14:02;;;;;;;8.23;5.68;;;;;;;21.30;37.31;94228.50;4973603;28;20452;-74
2021/08/22 06:16:28;;;;;;;9.73;6.63;;;;;;;21.36;37.34;94226.25;4976370;28;20026;-74
2021/08/22 06:18:53;;;;;;;7.97;5.05;;;;;;;21.28;37.68;94238.91;4975571;28;20513;-74
2021/08/22 06:21:18;;;;;;;12.60;5.18;;;;;;;21.20;37.67;94223.75;4972821;28;20038;-74
2021/08/22 06:23:44;;;;;;;12.13;5.18;;;;;;;21.32;37.32;94228.09;4975575;28;20042;-74
2021/08/22 06:26:09;;;;;;;7.13;4.50;;;;;;;21.22;37.65;94229.56;4970000;28;20029;-74
2021/08/22 06:28:35;;;;;;;8.50;4.95;;;;;;;21.30;37.59;94225.78;4976448;28;20304;-74
2021/08/22 06:31:00;;;;;;;7.13;4.72;;;;;;;21.35;36.84;94233.56;4970648;28;20038;-75
2021/08/22 06:33:25;;;;;;;4.32;3.90;;;;;;;21.35;38.14;94238.22;4972048;28;20038;-75
2021/08/22 06:35:51;;;;;;;4.80;3.92;;;;;;;21.46;37.28;94229.03;4966308;28;21435;-76
2021/08/22 06:38:16;;;;;;;8.98;4.80;;;;;;;21.57;37.23;94236.50;4968523;28;21031;-75
2021/08/22 06:40:42;;;;;;;7.72;4.40;;;;;;;21.48;37.11;94225.97;4970850;28;20039;-76
2021/08/22 06:43:07;;;;;;;4.40;4.00;;;;;;;21.50;36.94;94228.31;4974314;28;20587;-75
2021/08/22 06:45:32;;;;;;;7.47;4.10;;;;;;;21.70;37.31;94237.81;4971917;28;21044;-75
2021/08/22 06:47:58;;;;;;;10.70;4.30;;;;;;;21.71;37.54;94231.22;4974631;28;20093;-74
2021/08/22 06:50:26;;;;;;;6.72;4.38;;;;;;;21.85;37.13;94231.38;4975435;28;20046;-75
2021/08/22 06:52:52;;;;;;;8.50;4.70;;;;;;;21.94;37.24;94236.47;4977960;28;20519;-74
2021/08/22 06:55:18;;;;;;;5.82;4.43;;;;;;;21.94;37.37;94221.00;4976603;28;20579;-74
2021/08/22 06:57:43;;;;;;;6.72;3.92;;;;;;;22.12;36.30;94232.72;4979240;28;20041;-75
2021/08/22 07:00:09;;;;;;;6.13;5.07;;;;;;;22.18;36.55;94239.38;4976015;28;20060;-75
2021/08/22 07:02:35;;;;;;;6.07;4.35;;;;;;;22.24;36.72;94242.53;4968568;28;20069;-75
2021/08/22 07:05:00;;;;;;;5.47;4.40;;;;;;;22.29;36.59;94245.66;4976239;28;20105;-75
2021/08/22 07:07:25;;;;;;;7.25;4.28;;;;;;;22.39;36.82;94246.88;4975927;28;20030;-75
2021/08/22 07:09:51;;;;;;;5.72;4.63;;;;;;;22.39;37.44;94246.13;4974983;28;20448;-75
2021/08/22 07:12:16;;;;;;;7.20;4.80;;;;;;;22.44;37.12;94232.22;4971127;28;20038;-76
2021/08/22 07:14:42;;;;;;;6.55;4.50;;;;;;;22.52;36.22;94244.66;4969858;28;20116;-74
2021/08/22 07:17:07;;;;;;;6.78;4.25;;;;;;;22.57;37.11;94252.41;4969143;28;20066;-75
2021/08/22 07:19:33;;;;;;;8.52;4.63;;;;;;;22.65;36.40;94248.59;4970004;28;20499;-75
2021/08/22 07:21:58;;;;;;;6.60;4.78;;;;;;;22.30;36.29;94222.81;4971307;28;20500;-74
2021/08/22 07:24:24;;;;;;;5.97;4.10;;;;;;;22.54;37.84;94239.59;4977307;28;20026;-74
2021/08/22 07:26:49;;;;;;;4.03;3.60;;;;;;;22.64;36.17;94236.97;4974199;28;20042;-74
2021/08/22 07:29:14;;;;;;;8.65;4.95;;;;;;;22.59;36.84;94239.25;4976110;28;20047;-74
2021/08/22 07:31:40;;;;;;;8.27;4.88;;;;;;;22.62;36.78;94233.09;4974903;28;20022;-74
2021/08/22 07:34:05;;;;;;;5.70;4.30;;;;;;;22.72;36.18;94244.00;4975525;28;20582;-76
2021/08/22 07:36:31;;;;;;;6.05;4.75;;;;;;;22.69;36.17;94236.59;4975567;28;20034;-74
2021/08/22 07:38:56;;;;;;;7.25;4.50;;;;;;;22.53;36.56;94229.94;4973475;28;20073;-75
2021/08/22 07:41:21;;;;;;;6.57;4.43;;;;;;;22.57;36.67;94244.28;4974751;28;20078;-74
2021/08/22 07:43:47;;;;;;;5.68;4.57;;;;;;;22.78;36.51;94236.25;4972829;28;20526;-75
2021/08/22 07:46:12;;;;;;;5.13;4.35;;;;;;;22.89;36.38;94239.03;4973595;28;20388;-74
2021/08/22 07:48:37;;;;;;;7.38;4.80;;;;;;;22.79;35.75;94207.97;4973743;28;20105;-74
2021/08/22 07:51:03;;;;;;;6.05;4.10;;;;;;;22.99;36.44;94225.53;4972319;28;20046;-74
2021/08/22 07:53:28;;;;;;;9.10;5.00;;;;;;;23.17;36.14;94235.69;4974820;28;20365;-74
2021/08/22 07:55:54;;;;;;;6.10;4.88;;;;;;;23.22;35.89;94232.59;4974010;28;20416;-76
2021/08/22 07:58:20;;;;;;;7.68;5.15;;;;;;;23.14;35.60;94215.50;4975176;28;20564;-74
2021/08/22 08:00:45;;;;;;;7.70;4.47;;;;;;;23.30;36.19;94234.16;4974147;28;20049;-75
2021/08/22 08:03:12;;;;;;;5.88;4.72;;;;;;;23.40;35.98;94233.41;4972959;28;20038;-74
2021/08/22 08:05:38;;;;;;;7.45;4.95;;;;;;;23.26;36.06;94223.31;4973978;28;20057;-75
2021/08/22 08:08:03;;;;;;;8.90;4.90;;;;;;;23.39;35.17;94234.56;4969771;28;20033;-74
2021/08/22 08:10:29;;;;;;;6.03;5.20;;;;;;;23.43;35.64;94232.63;4970214;28;20552;-76
2021/08/22 08:12:54;;;;;;;6.85;5.50;;;;;;;23.37;34.72;94207.81;4974641;28;20045;-75
2021/08/22 08:15:19;;;;;;;7.10;4.90;;;;;;;23.50;35.27;94221.84;4972159;28;20038;-75
2021/08/22 08:17:45;;;;;;;7.45;5.05;;;;;;;23.65;34.28;94215.28;4971862;28;20038;-75
2021/08/22 08:20:12;;;;;;;5.57;5.07;;;;;;;23.69;34.38;94235.06;4971811;28;20153;-75
2021/08/22 08:22:38;;;;;;;6.30;4.97;;;;;;;23.64;34.62;94227.28;4979726;28;20022;-75
2021/08/22 08:25:04;;;;;;;5.97;4.85;;;;;;;23.80;35.25;94235.84;4973386;28;20038;-75
2021/08/22 08:27:29;;;;;;;8.63;6.22;;;;;;;23.75;35.10;94224.59;4978653;28;20041;-75
2021/08/22 08:29:55;;;;;;;6.30;4.93;;;;;;;23.73;35.02;94227.69;4972826;28;20042;-75
2021/08/22 08:32:20;;;;;;;9.35;5.15;;;;;;;23.92;35.13;94223.81;4975625;28;20030;-75
2021/08/22 08:34:48;;;;;;;8.40;5.22;;;;;;;24.08;34.49;94218.00;4974089;28;20030;-75
2021/08/22 08:37:14;;;;;;;6.63;5.47;;;;;;;24.16;34.37;94225.00;4974033;28;20033;-75
2021/08/22 08:39:39;;;;;;;11.15;5.68;;;;;;;24.24;34.68;94221.13;4971500;28;20039;-75
2021/08/22 08:42:24;;;;;;;7.47;5.50;;;;;;;24.35;34.32;94221.88;4973356;28;20543;-75
2021/08/22 08:44:52;;;;;;;6.25;5.40;;;;;;;24.30;33.63;94225.75;4974077;28;20580;-75
2021/08/22 08:47:19;;;;;;;8.93;5.13;;;;;;;24.38;34.35;94216.44;4970548;28;20049;-74
2021/08/22 08:49:47;;;;;;;7.45;5.40;;;;;;;24.35;34.50;94216.44;4972401;28;20026;-74
2021/08/22 08:52:13;;;;;;;6.85;5.30;;;;;;;24.22;33.23;94220.72;4973143;28;20417;-73
2021/08/22 08:54:44;;;;;;;6.82;4.82;;;;;;;24.22;33.14;94210.63;4970421;28;20038;-74
2021/08/22 08:57:10;;;;;;;5.50;4.40;;;;;;;24.07;34.74;94183.84;4988832;28;20034;-74
2021/08/22 08:59:36;;;;;;;5.18;4.25;;;;;;;24.20;33.57;94199.38;4969160;28;20460;-75
2021/08/22 09:02:02;;;;;;;5.28;4.78;;;;;;;24.34;32.97;94215.69;4973451;28;20038;-74
2021/08/22 09:04:28;;;;;;;4.88;4.40;;;;;;;24.39;33.17;94217.97;4972660;28;20068;-75
2021/08/22 09:07:22;;;;;;;6.18;5.00;;;;;;;24.49;31.84;94210.22;4969465;28;20074;-74
2021/08/22 09:10:25;;;;;;;5.57;4.57;;;;;;;24.67;32.20;94206.28;4970560;28;20599;-75
2021/08/22 09:13:00;;;;;;;6.15;4.80;;;;;;;24.74;32.59;94205.50;4972283;28;20108;-77
2021/08/22 09:15:56;;;;;;;6.28;4.82;;;;;;;24.85;31.91;94206.22;4967177;28;20402;-75
2021/08/22 09:18:59;;;;;;;7.80;4.93;;;;;;;25.00;31.65;94198.78;4970506;28;20035;-74
2021/08/22 09:21:46;;;;;;;5.65;3.97;;;;;;;24.91;31.54;94163.84;4985843;28;20042;-75
2021/08/22 09:24:30;;;;;;;5.38;4.45;;;;;;;25.17;29.89;94206.13;4973619;28;20049;-74
2021/08/22 09:27:23;;;;;;;6.43;4.70;;;;;;;25.28;31.36;94195.94;4969935;28;20070;-74
2021/08/22 09:30:26;;;;;;;6.25;4.93;;;;;;;25.39;30.36;94199.41;4961973;28;20038;-75
2021/08/22 09:33:29;;;;;;;7.53;4.25;;;;;;;25.11;30.81;94158.72;4971281;28;20100;-74
2021/08/22 09:36:23;;;;;;;6.53;4.78;;;;;;;25.25;30.21;94194.78;4965551;28;21443;-74
2021/08/22 09:39:26;;;;;;;5.50;4.78;;;;;;;25.32;30.86;94191.28;4990610;28;20045;-74
2021/08/22 09:42:29;;;;;;;6.10;4.93;;;;;;;25.31;30.26;94189.72;4969557;28;20465;-74
2021/08/22 09:45:32;;;;;;;6.30;4.90;;;;;;;25.35;31.57;94185.03;4972054;28;20042;-76
2021/08/22 09:48:26;;;;;;;5.70;4.57;;;;;;;25.24;30.38;94181.56;4953185;28;20078;-74
2021/08/22 09:51:13;;;;;;;5.25;4.40;;;;;;;25.25;30.18;94185.84;4970945;28;20047;-75
2021/08/22 09:54:12;;;;;;;5.80;5.00;;;;;;;25.41;30.58;94182.69;4985417;28;20051;-75
2021/08/22 09:57:03;;;;;;;11.95;5.57;;;;;;;25.20;30.45;94183.53;4971195;28;20042;-74
2021/08/22 09:59:52;;;;;;;7.78;5.15;;;;;;;25.46;29.69;94179.53;4972813;28;20042;-74
2021/08/22 10:02:33;;;;;;;8.07;5.72;;;;;;;25.52;30.16;94177.91;4971269;28;20042;-75
2021/08/22 10:05:33;;;;;;;8.35;5.80;;;;;;;25.41;29.76;94177.22;4983737;28;20582;-74
2021/08/22 10:08:43;;;;;;;10.55;5.30;;;;;;;25.33;30.28;94179.22;4970402;28;20041;-74
2021/08/22 10:11:10;;;;;;;6.78;5.05;;;;;;;25.26;29.95;94162.91;4971731;28;20531;-75
2021/08/22 10:13:39;;;;;;;8.50;5.90;;;;;;;25.41;30.38;94167.13;4974647;28;20040;-75
2021/08/22 10:16:05;;;;;;;9.05;5.57;;;;;;;25.57;30.75;94164.66;4975645;28;20046;-75
2021/08/22 10:18:30;;;;;;;4.57;4.15;;;;;;;25.69;30.31;94166.91;4975155;28;20640;-74
2021/08/22 10:21:06;;;;;;;5.47;4.82;;;;;;;25.62;29.33;94171.63;4977271;28;20592;-74
2021/08/22 10:23:32;;;;;;;6.20;5.60;;;;;;;25.59;28.94;94167.75;4976954;28;20040;-75
2021/08/22 10:26:00;;;;;;;10.13;5.47;;;;;;;25.55;29.35;94150.69;4977604;28;20330;-74
2021/08/22 10:28:44;;;;;;;7.43;4.63;;;;;;;25.73;29.34;94166.88;4979372;28;20217;-73
2021/08/22 10:31:10;;;;;;;6.20;4.80;;;;;;;25.58;29.16;94160.75;4976091;28;20046;-74
2021/08/22 10:33:36;;;;;;;5.38;4.78;;;;;;;25.51;28.74;94155.38;4976579;28;20047;-74
2021/08/22 10:36:27;;;;;;;9.27;5.55;;;;;;;25.63;28.74;94160.34;4989873;28;20227;-74
2021/08/22 10:39:30;;;;;;;7.15;5.60;;;;;;;25.78;28.75;94157.50;4976673;28;20044;-74
2021/08/22 10:41:56;;;;;;;6.75;5.45;;;;;;;25.84;31.16;94145.00;4977105;28;20481;-75
2021/08/22 10:44:35;;;;;;;6.95;5.57;;;;;;;25.90;27.82;94148.88;4973427;28;20050;-74
2021/08/22 10:47:06;;;;;;;7.70;5.22;;;;;;;25.81;27.46;94135.66;4986315;28;20374;-75
2021/08/22 10:49:50;;;;;;;7.65;5.78;;;;;;;26.07;27.38;94147.94;4978353;28;20033;-75
2021/08/22 10:52:29;;;;;;;15.88;7.05;;;;;;;26.15;26.64;94149.44;4974222;28;20078;-75
2021/08/22 10:55:16;;;;;;;8.05;6.15;;;;;;;26.15;26.97;94143.97;4972151;28;20038;-76
2021/08/22 10:57:50;;;;;;;8.32;5.35;;;;;;;26.13;27.75;94138.16;4973369;28;20469;-75
2021/08/22 11:00:26;;;;;;;7.07;5.53;;;;;;;26.27;27.16;94139.94;4972461;28;20042;-75
2021/08/22 11:03:02;;;;;;;8.32;5.43;;;;;;;26.37;26.98;94139.84;4976247;28;20511;-74
2021/08/22 11:05:37;;;;;;;9.23;6.28;;;;;;;26.43;27.48;94138.22;4971323;28;20038;-75
2021/08/22 11:08:24;;;;;;;7.18;5.53;;;;;;;26.50;27.35;94121.03;4977413;28;20062;-75
2021/08/22 11:10:58;;;;;;;6.18;5.57;;;;;;;26.33;26.71;94128.22;4975947;28;20039;-76
2021/08/22 11:13:25;;;;;;;6.90;6.15;;;;;;;26.41;27.08;94129.66;4974113;28;20046;-74
2021/08/22 11:15:50;;;;;;;8.23;5.80;;;;;;;26.65;27.17;94129.81;4972542;28;20038;-76
2021/08/22 11:18:16;;;;;;;7.03;5.82;;;;;;;26.65;26.36;94127.88;4970509;28;20093;-75
2021/08/22 11:20:43;;;;;;;7.43;6.45;;;;;;;26.66;27.07;94113.03;4971497;28;20536;-75
2021/08/22 11:23:16;;;;;;;7.07;5.53;;;;;;;26.74;26.72;94121.94;4975555;28;20026;-76
2021/08/22 11:25:44;;;;;;;9.05;5.72;;;;;;;26.81;26.91;94119.09;4971181;28;20828;-76
2021/08/22 11:28:11;;;;;;;7.10;5.90;;;;;;;26.98;27.93;94123.56;4973732;28;20054;-75
2021/08/22 11:30:38;;;;;;;6.60;5.90;;;;;;;27.01;27.34;94113.78;4973713;28;20076;-75
2021/08/22 11:33:04;;;;;;;8.10;6.18;;;;;;;26.85;27.66;94119.81;4974932;28;20049;-74
2021/08/22 11:35:30;;;;;;;6.53;5.55;;;;;;;26.69;27.52;94095.09;4976755;28;20053;-75
2021/08/22 11:38:00;;;;;;;6.57;5.88;;;;;;;26.82;29.69;94109.75;4972858;28;20026;-75
2021/08/22 11:40:26;;;;;;;6.88;6.18;;;;;;;26.78;26.84;94103.56;4971647;28;20032;-75
2021/08/22 11:42:56;;;;;;;7.53;6.82;;;;;;;26.86;28.13;94107.72;4969492;28;20825;-75
2021/08/22 11:45:23;;;;;;;7.00;6.20;;;;;;;26.92;30.38;94104.16;4974592;28;20393;-75